createdAt,value
2018-12-16T00:00:33.345Z,1007.34
2018-12-16T00:01:33.349Z,1007.30
2018-12-16T00:02:33.333Z,1007.24
2018-12-16T00:03:33.314Z,1007.20
2018-12-16T00:04:33.310Z,1007.15
2018-12-16T00:05:33.291Z,1007.13
2018-12-16T00:06:33.309Z,1007.03
2018-12-16T00:07:33.276Z,1006.96
2018-12-16T00:08:33.270Z,1006.89
2018-12-16T00:09:33.249Z,1006.86
2018-12-16T00:10:33.236Z,1006.81
2018-12-16T00:11:33.223Z,1006.78
2018-12-16T00:12:33.246Z,1006.86
2018-12-16T00:13:33.210Z,1006.84
2018-12-16T00:14:33.194Z,1006.76
2018-12-16T00:15:33.181Z,1006.75
2018-12-16T00:16:33.169Z,1006.80
2018-12-16T00:17:33.168Z,1006.72
2018-12-16T00:18:33.147Z,1006.75
2018-12-16T00:19:33.142Z,1006.69
2018-12-16T00:20:33.142Z,1006.65
2018-12-16T00:21:33.121Z,1006.69
2018-12-16T00:22:33.116Z,1006.72
2018-12-16T00:23:33.092Z,1006.72
2018-12-16T00:24:33.085Z,1006.81
2018-12-16T00:25:33.075Z,1006.83
2018-12-16T00:26:33.056Z,1006.87
2018-12-16T00:27:33.085Z,1006.84
2018-12-16T00:28:33.043Z,1006.86
2018-12-16T00:29:33.026Z,1006.85
2018-12-16T00:30:33.013Z,1006.80
2018-12-16T00:31:33.008Z,1006.79
2018-12-16T00:32:33.003Z,1006.76
2018-12-16T00:33:32.983Z,1006.76
2018-12-16T00:34:32.970Z,1006.82
2018-12-16T00:35:32.968Z,1006.73
2018-12-16T00:36:32.949Z,1006.76
2018-12-16T00:37:32.967Z,1006.71
2018-12-16T00:38:32.922Z,1006.72
2018-12-16T00:39:32.912Z,1006.67
2018-12-16T00:40:32.901Z,1006.65
2018-12-16T00:41:32.906Z,1006.68
2018-12-16T00:42:32.900Z,1006.67
2018-12-16T00:43:32.867Z,1006.66
2018-12-16T00:44:32.858Z,1006.63
2018-12-16T00:45:32.845Z,1006.59
2018-12-16T00:46:32.834Z,1006.57
2018-12-16T00:47:32.837Z,1006.55
2018-12-16T00:48:32.811Z,1006.64
2018-12-16T00:49:32.805Z,1006.60
2018-12-16T00:50:32.793Z,1006.67
2018-12-16T00:51:32.778Z,1006.65
2018-12-16T00:52:36.501Z,1006.69
2018-12-16T00:53:32.762Z,1006.64
2018-12-16T00:54:32.755Z,1006.58
2018-12-16T00:55:32.736Z,1006.61
2018-12-16T00:56:32.746Z,1006.61
2018-12-16T00:57:32.772Z,1006.63
2018-12-16T00:58:32.756Z,1006.67
2018-12-16T00:59:32.717Z,1006.66
2018-12-16T01:00:32.706Z,1006.66
2018-12-16T01:01:32.681Z,1006.68
2018-12-16T01:02:32.658Z,1006.72
2018-12-16T01:03:32.664Z,1006.73
2018-12-16T01:04:32.671Z,1006.74
2018-12-16T01:05:32.623Z,1006.77
2018-12-16T01:06:32.610Z,1006.76
2018-12-16T01:07:32.604Z,1006.78
2018-12-16T01:08:32.607Z,1006.78
2018-12-16T01:09:32.579Z,1006.77
2018-12-16T01:10:32.569Z,1006.80
2018-12-16T01:11:32.557Z,1006.79
2018-12-16T01:12:32.571Z,1006.72
2018-12-16T01:13:32.545Z,1006.78
2018-12-16T01:14:32.526Z,1006.77
2018-12-16T01:15:32.677Z,1006.70
2018-12-16T01:16:32.498Z,1006.73
2018-12-16T01:17:32.517Z,1006.75
2018-12-16T01:18:32.499Z,1006.79
2018-12-16T01:19:32.474Z,1006.76
2018-12-16T01:20:32.456Z,1006.73
2018-12-16T01:21:32.443Z,1006.76
2018-12-16T01:22:32.432Z,1006.74
2018-12-16T01:23:32.436Z,1006.74
2018-12-16T01:24:32.413Z,1006.66
2018-12-16T01:25:32.403Z,1006.65
2018-12-16T01:26:32.388Z,1006.64
2018-12-16T01:27:32.403Z,1006.69
2018-12-16T01:28:32.391Z,1006.63
2018-12-16T01:29:32.354Z,1006.59
2018-12-16T01:30:32.354Z,1006.65
2018-12-16T01:31:32.333Z,1006.68
2018-12-16T01:32:32.321Z,1006.68
2018-12-16T01:33:32.325Z,1006.70
2018-12-16T01:34:32.306Z,1006.68
2018-12-16T01:35:32.290Z,1006.68
2018-12-16T01:36:32.276Z,1006.70
2018-12-16T01:37:32.284Z,1006.70
2018-12-16T01:38:32.267Z,1006.67
2018-12-16T01:39:32.243Z,1006.66
2018-12-16T01:40:32.246Z,1006.64
2018-12-16T01:41:32.223Z,1006.62
2018-12-16T01:42:32.222Z,1006.67
2018-12-16T01:43:32.210Z,1006.67
2018-12-16T01:44:32.199Z,1006.59
2018-12-16T01:45:32.185Z,1006.60
2018-12-16T01:46:32.168Z,1006.63
2018-12-16T01:47:32.158Z,1006.60
2018-12-16T01:48:32.151Z,1006.62
2018-12-16T01:49:32.135Z,1006.63
2018-12-16T01:50:32.157Z,1006.61
2018-12-16T01:51:32.109Z,1006.60
2018-12-16T01:52:32.102Z,1006.58
2018-12-16T01:53:32.103Z,1006.58
2018-12-16T01:54:32.075Z,1006.60
2018-12-16T01:55:32.104Z,1006.56
2018-12-16T01:56:32.054Z,1006.53
2018-12-16T01:57:32.048Z,1006.55
2018-12-16T01:58:32.040Z,1006.51
2018-12-16T01:59:32.020Z,1006.50
2018-12-16T02:00:32.009Z,1006.52
2018-12-16T02:01:31.999Z,1006.46
2018-12-16T02:02:31.989Z,1006.44
2018-12-16T02:03:32.002Z,1006.42
2018-12-16T02:04:31.966Z,1006.42
2018-12-16T02:05:31.955Z,1006.39
2018-12-16T02:06:31.947Z,1006.39
2018-12-16T02:07:31.932Z,1006.28
2018-12-16T02:08:31.933Z,1006.28
2018-12-16T02:09:31.926Z,1006.25
2018-12-16T02:10:31.895Z,1006.20
2018-12-16T02:11:31.884Z,1006.18
2018-12-16T02:12:31.872Z,1006.21
2018-12-16T02:13:31.877Z,1006.17
2018-12-16T02:14:31.862Z,1006.20
2018-12-16T02:15:31.840Z,1006.17
2018-12-16T02:16:31.829Z,1006.19
2018-12-16T02:17:31.818Z,1006.12
2018-12-16T02:18:31.807Z,1006.09
2018-12-16T02:19:31.811Z,1006.08
2018-12-16T02:20:31.805Z,1006.06
2018-12-16T02:21:31.772Z,1006.00
2018-12-16T02:22:31.762Z,1005.95
2018-12-16T02:23:31.754Z,1005.96
2018-12-16T02:24:31.752Z,1005.91
2018-12-16T02:25:31.734Z,1005.92
2018-12-16T02:26:31.734Z,1005.94
2018-12-16T02:27:31.707Z,1005.93
2018-12-16T02:28:31.698Z,1005.96
2018-12-16T02:29:31.699Z,1005.94
2018-12-16T02:30:31.676Z,1005.93
2018-12-16T02:31:31.680Z,1005.93
2018-12-16T02:32:31.649Z,1005.88
2018-12-16T02:33:31.643Z,1005.79
2018-12-16T02:34:31.640Z,1005.80
2018-12-16T02:35:31.616Z,1005.80
2018-12-16T02:36:31.640Z,1005.77
2018-12-16T02:37:31.609Z,1005.76
2018-12-16T02:38:31.586Z,1005.71
2018-12-16T02:39:31.585Z,1005.67
2018-12-16T02:40:31.560Z,1005.61
2018-12-16T02:41:31.555Z,1005.51
2018-12-16T02:42:31.543Z,1005.45
2018-12-16T02:43:31.528Z,1005.37
2018-12-16T02:44:31.528Z,1005.40
2018-12-16T02:45:31.505Z,1005.34
2018-12-16T02:46:31.514Z,1005.25
2018-12-16T02:47:31.496Z,1005.20
2018-12-16T02:48:31.475Z,1005.17
2018-12-16T02:49:31.494Z,1005.17
2018-12-16T02:50:31.450Z,1005.09
2018-12-16T02:51:31.445Z,1005.18
2018-12-16T02:52:31.428Z,1005.14
2018-12-16T02:53:31.423Z,1005.18
2018-12-16T02:54:31.430Z,1005.26
2018-12-16T02:55:31.398Z,1005.26
2018-12-16T02:56:31.382Z,1005.32
2018-12-16T02:57:31.371Z,1005.36
2018-12-16T02:58:31.364Z,1005.34
2018-12-16T02:59:31.379Z,1005.31
2018-12-16T03:00:31.342Z,1005.34
2018-12-16T03:01:31.329Z,1005.29
2018-12-16T03:02:31.321Z,1005.32
2018-12-16T03:03:31.307Z,1005.28
2018-12-16T03:04:31.332Z,1005.28
2018-12-16T03:05:31.289Z,1005.29
2018-12-16T03:06:31.282Z,1005.24
2018-12-16T03:07:31.262Z,1005.29
2018-12-16T03:08:31.265Z,1005.21
2018-12-16T03:09:31.317Z,1005.26
2018-12-16T03:10:31.432Z,1005.26
2018-12-16T03:11:31.331Z,1005.21
2018-12-16T03:12:31.231Z,1005.20
2018-12-16T03:13:31.192Z,1005.18
2018-12-16T03:14:31.182Z,1005.16
2018-12-16T03:15:31.185Z,1005.16
2018-12-16T03:16:31.161Z,1005.13
2018-12-16T03:17:31.146Z,1005.08
2018-12-16T03:18:31.140Z,1005.06
2018-12-16T03:19:31.134Z,1005.05
2018-12-16T03:20:31.138Z,1004.97
2018-12-16T03:21:31.110Z,1005.00
2018-12-16T03:22:31.105Z,1004.95
2018-12-16T03:23:31.084Z,1004.91
2018-12-16T03:24:31.073Z,1004.93
2018-12-16T03:25:31.072Z,1004.87
2018-12-16T03:26:35.850Z,1004.88
2018-12-16T03:27:32.044Z,1004.85
2018-12-16T03:28:31.044Z,1004.85
2018-12-16T03:29:31.015Z,1004.85
2018-12-16T03:30:31.050Z,1004.89
2018-12-16T03:31:31.005Z,1004.81
2018-12-16T03:32:30.987Z,1004.79
2018-12-16T03:33:30.979Z,1004.74
2018-12-16T03:34:30.969Z,1004.67
2018-12-16T03:35:30.998Z,1004.70
2018-12-16T03:36:30.940Z,1004.68
2018-12-16T03:37:30.928Z,1004.67
2018-12-16T03:38:30.914Z,1004.64
2018-12-16T03:39:30.904Z,1004.62
2018-12-16T03:40:30.917Z,1004.62
2018-12-16T03:41:30.882Z,1004.57
2018-12-16T03:42:30.871Z,1004.54
2018-12-16T03:43:30.864Z,1004.47
2018-12-16T03:44:30.862Z,1004.50
2018-12-16T03:45:30.854Z,1004.47
2018-12-16T03:46:30.831Z,1004.46
2018-12-16T03:47:30.814Z,1004.38
2018-12-16T03:48:30.801Z,1004.31
2018-12-16T03:49:30.790Z,1004.31
2018-12-16T03:50:30.791Z,1004.25
2018-12-16T03:51:30.773Z,1004.18
2018-12-16T03:52:30.759Z,1004.13
2018-12-16T03:53:30.751Z,1004.21
2018-12-16T03:54:30.741Z,1004.13
2018-12-16T03:55:30.737Z,1004.13
2018-12-16T03:56:30.715Z,1004.09
2018-12-16T03:57:30.710Z,1004.09
2018-12-16T03:58:30.706Z,1004.10
2018-12-16T03:59:30.682Z,1004.10
2018-12-16T04:00:30.680Z,1004.04
2018-12-16T04:01:30.663Z,1004.06
2018-12-16T04:02:30.648Z,1004.03
2018-12-16T04:03:30.637Z,1004.05
2018-12-16T04:04:30.631Z,1003.99
2018-12-16T04:05:30.627Z,1003.91
2018-12-16T04:06:30.612Z,1003.86
2018-12-16T04:07:30.596Z,1003.82
2018-12-16T04:08:30.608Z,1003.80
2018-12-16T04:09:30.567Z,1003.78
2018-12-16T04:10:30.575Z,1003.88
2018-12-16T04:11:30.547Z,1003.91
2018-12-16T04:12:30.536Z,1003.94
2018-12-16T04:13:30.525Z,1003.84
2018-12-16T04:14:30.516Z,1003.81
2018-12-16T04:15:30.512Z,1003.82
2018-12-16T04:16:30.489Z,1003.80
2018-12-16T04:17:30.478Z,1003.73
2018-12-16T04:18:30.477Z,1003.74
2018-12-16T04:19:30.460Z,1003.75
2018-12-16T04:20:30.461Z,1003.72
2018-12-16T04:21:30.446Z,1003.75
2018-12-16T04:22:30.434Z,1003.73
2018-12-16T04:23:30.415Z,1003.75
2018-12-16T04:24:30.421Z,1003.70
2018-12-16T04:25:30.402Z,1003.75
2018-12-16T04:26:30.382Z,1003.68
2018-12-16T04:27:30.378Z,1003.64
2018-12-16T04:28:30.357Z,1003.62
2018-12-16T04:29:30.349Z,1003.62
2018-12-16T04:30:30.358Z,1003.59
2018-12-16T04:31:30.343Z,1003.56
2018-12-16T04:32:30.320Z,1003.61
2018-12-16T04:33:30.300Z,1003.59
2018-12-16T04:34:30.294Z,1003.63
2018-12-16T04:35:30.291Z,1003.60
2018-12-16T04:36:30.276Z,1003.58
2018-12-16T04:37:30.266Z,1003.57
2018-12-16T04:38:30.245Z,1003.59
2018-12-16T04:39:30.235Z,1003.64
2018-12-16T04:40:30.239Z,1003.64
2018-12-16T04:41:30.212Z,1003.62
2018-12-16T04:42:30.206Z,1003.66
2018-12-16T04:43:30.191Z,1003.65
2018-12-16T04:44:30.190Z,1003.66
2018-12-16T04:45:30.203Z,1003.62
2018-12-16T04:46:30.159Z,1003.68
2018-12-16T04:47:30.153Z,1003.67
2018-12-16T04:48:30.135Z,1003.63
2018-12-16T04:49:30.123Z,1003.62
2018-12-16T04:50:30.118Z,1003.56
2018-12-16T04:51:30.117Z,1003.59
2018-12-16T04:52:30.097Z,1003.59
2018-12-16T04:53:35.958Z,1003.62
2018-12-16T04:54:31.069Z,1003.57
2018-12-16T04:55:30.060Z,1003.54
2018-12-16T04:56:30.066Z,1003.56
2018-12-16T04:57:30.033Z,1003.59
2018-12-16T04:58:30.025Z,1003.57
2018-12-16T04:59:30.009Z,1003.58
2018-12-16T05:00:30.007Z,1003.58
2018-12-16T05:01:30.019Z,1003.56
2018-12-16T05:02:29.982Z,1003.52
2018-12-16T05:03:29.971Z,1003.49
2018-12-16T05:04:29.954Z,1003.45
2018-12-16T05:05:29.946Z,1003.41
2018-12-16T05:06:29.956Z,1003.43
2018-12-16T05:07:29.927Z,1003.41
2018-12-16T05:08:29.910Z,1003.37
2018-12-16T05:09:29.904Z,1003.31
2018-12-16T05:10:29.888Z,1003.38
2018-12-16T05:11:29.889Z,1003.34
2018-12-16T05:12:29.868Z,1003.35
2018-12-16T05:13:29.856Z,1003.36
2018-12-16T05:14:29.855Z,1003.31
2018-12-16T05:15:29.831Z,1003.31
2018-12-16T05:16:29.837Z,1003.30
2018-12-16T05:17:29.829Z,1003.35
2018-12-16T05:18:29.800Z,1003.32
2018-12-16T05:19:29.790Z,1003.33
2018-12-16T05:20:29.778Z,1003.32
2018-12-16T05:21:29.785Z,1003.28
2018-12-16T05:22:29.755Z,1003.23
2018-12-16T05:23:29.744Z,1003.27
2018-12-16T05:24:29.730Z,1003.24
2018-12-16T05:25:29.723Z,1003.24
2018-12-16T05:26:29.733Z,1003.22
2018-12-16T05:27:29.707Z,1003.22
2018-12-16T05:28:29.688Z,1003.26
2018-12-16T05:29:29.676Z,1003.24
2018-12-16T05:30:29.682Z,1003.28
2018-12-16T05:31:29.676Z,1003.31
2018-12-16T05:32:29.679Z,1003.33
2018-12-16T05:33:29.637Z,1003.32
2018-12-16T05:34:29.623Z,1003.35
2018-12-16T05:35:29.610Z,1003.26
2018-12-16T05:36:29.599Z,1003.28
2018-12-16T05:37:29.604Z,1003.26
2018-12-16T05:38:29.576Z,1003.29
2018-12-16T05:39:29.570Z,1003.31
2018-12-16T05:40:29.571Z,1003.31
2018-12-16T05:41:29.541Z,1003.28
2018-12-16T05:42:29.553Z,1003.23
2018-12-16T05:43:29.517Z,1003.22
2018-12-16T05:44:29.511Z,1003.25
2018-12-16T05:45:29.502Z,1003.22
2018-12-16T05:46:29.490Z,1003.24
2018-12-16T05:47:29.488Z,1003.24
2018-12-16T05:48:29.466Z,1003.26
2018-12-16T05:49:29.455Z,1003.27
2018-12-16T05:50:29.446Z,1003.28
2018-12-16T05:51:29.439Z,1003.26
2018-12-16T05:52:29.447Z,1003.26
2018-12-16T05:53:29.407Z,1003.28
2018-12-16T05:54:29.396Z,1003.25
2018-12-16T05:55:29.391Z,1003.28
2018-12-16T05:56:29.376Z,1003.26
2018-12-16T05:57:29.378Z,1003.23
2018-12-16T05:58:29.353Z,1003.26
2018-12-16T05:59:29.345Z,1003.30
2018-12-16T06:00:29.332Z,1003.27
2018-12-16T06:01:29.324Z,1003.24
2018-12-16T06:02:29.319Z,1003.22
2018-12-16T06:03:29.332Z,1003.15
2018-12-16T06:04:29.287Z,1003.16
2018-12-16T06:05:29.271Z,1003.15
2018-12-16T06:06:29.269Z,1003.13
2018-12-16T06:07:29.273Z,1003.13
2018-12-16T06:08:29.243Z,1003.10
2018-12-16T06:09:29.227Z,1003.09
2018-12-16T06:10:29.218Z,1003.12
2018-12-16T06:11:29.205Z,1003.08
2018-12-16T06:12:29.209Z,1003.13
2018-12-16T06:13:29.190Z,1003.10
2018-12-16T06:14:29.185Z,1003.11
2018-12-16T06:15:29.165Z,1003.12
2018-12-16T06:16:29.162Z,1003.13
2018-12-16T06:17:29.158Z,1003.09
2018-12-16T06:18:29.128Z,1003.10
2018-12-16T06:19:29.120Z,1003.09
2018-12-16T06:20:29.106Z,1003.04
2018-12-16T06:21:29.096Z,1003.02
2018-12-16T06:22:29.093Z,1003.03
2018-12-16T06:23:29.074Z,1002.95
2018-12-16T06:24:29.099Z,1002.98
2018-12-16T06:25:29.055Z,1002.97
2018-12-16T06:26:29.069Z,1003.04
2018-12-16T06:27:29.039Z,1003.05
2018-12-16T06:28:29.022Z,1003.04
2018-12-16T06:29:29.006Z,1003.08
2018-12-16T06:30:28.998Z,1003.01
2018-12-16T06:31:29.005Z,1003.03
2018-12-16T06:32:28.982Z,1003.01
2018-12-16T06:33:28.961Z,1003.02
2018-12-16T06:34:28.953Z,1003.02
2018-12-16T06:35:28.939Z,1003.03
2018-12-16T06:36:28.930Z,1003.03
2018-12-16T06:37:28.927Z,1003.04
2018-12-16T06:38:28.910Z,1003.01
2018-12-16T06:39:28.901Z,1002.97
2018-12-16T06:40:28.882Z,1002.99
2018-12-16T06:41:28.875Z,1002.98
2018-12-16T06:42:28.889Z,1002.99
2018-12-16T06:43:28.868Z,1003.01
2018-12-16T06:44:28.839Z,1003.07
2018-12-16T06:45:28.826Z,1003.10
2018-12-16T06:46:28.818Z,1003.08
2018-12-16T06:47:28.817Z,1003.11
2018-12-16T06:48:28.804Z,1003.09
2018-12-16T06:49:28.801Z,1003.10
2018-12-16T06:50:28.769Z,1003.16
2018-12-16T06:51:28.758Z,1003.15
2018-12-16T06:52:28.751Z,1003.09
2018-12-16T06:53:28.756Z,1003.11
2018-12-16T06:54:28.737Z,1003.17
2018-12-16T06:55:28.713Z,1003.18
2018-12-16T06:56:28.705Z,1003.16
2018-12-16T06:57:28.692Z,1003.15
2018-12-16T06:58:28.696Z,1003.20
2018-12-16T06:59:28.670Z,1003.16
2018-12-16T07:00:28.659Z,1003.17
2018-12-16T07:01:28.661Z,1003.19
2018-12-16T07:02:28.645Z,1003.18
2018-12-16T07:03:28.641Z,1003.13
2018-12-16T07:04:28.625Z,1003.22
2018-12-16T07:05:28.601Z,1003.25
2018-12-16T07:06:28.592Z,1003.22
2018-12-16T07:07:28.584Z,1003.26
2018-12-16T07:08:28.580Z,1003.28
2018-12-16T07:09:28.571Z,1003.24
2018-12-16T07:10:28.547Z,1003.26
2018-12-16T07:11:28.543Z,1003.25
2018-12-16T07:12:28.547Z,1003.28
2018-12-16T07:13:28.526Z,1003.24
2018-12-16T07:14:28.508Z,1003.26
2018-12-16T07:15:28.502Z,1003.29
2018-12-16T07:16:28.522Z,1003.28
2018-12-16T07:17:28.485Z,1003.22
2018-12-16T07:18:28.480Z,1003.21
2018-12-16T07:19:28.453Z,1003.27
2018-12-16T07:20:28.446Z,1003.23
2018-12-16T07:21:28.435Z,1003.28
2018-12-16T07:22:28.423Z,1003.29
2018-12-16T07:23:28.427Z,1003.28
2018-12-16T07:24:28.390Z,1003.29
2018-12-16T07:25:28.457Z,1003.23
2018-12-16T07:26:28.399Z,1003.26
2018-12-16T07:27:28.384Z,1003.25
2018-12-16T07:28:28.385Z,1003.26
2018-12-16T07:29:28.349Z,1003.25
2018-12-16T07:30:28.340Z,1003.24
2018-12-16T07:31:28.312Z,1003.27
2018-12-16T07:32:28.343Z,1003.27
2018-12-16T07:33:28.317Z,1003.29
2018-12-16T07:34:28.306Z,1003.32
2018-12-16T07:35:28.337Z,1003.30
2018-12-16T07:36:28.259Z,1003.33
2018-12-16T07:37:28.246Z,1003.30
2018-12-16T07:38:28.268Z,1003.30
2018-12-16T07:39:28.255Z,1003.30
2018-12-16T07:40:28.272Z,1003.32
2018-12-16T07:41:28.214Z,1003.31
2018-12-16T07:42:28.189Z,1003.29
2018-12-16T07:43:28.213Z,1003.29
2018-12-16T07:44:28.215Z,1003.29
2018-12-16T07:45:28.165Z,1003.25
2018-12-16T07:46:28.145Z,1003.25
2018-12-16T07:47:28.143Z,1003.19
2018-12-16T07:48:28.152Z,1003.18
2018-12-16T07:49:28.117Z,1003.20
2018-12-16T07:50:28.102Z,1003.16
2018-12-16T07:51:28.094Z,1003.18
2018-12-16T07:52:28.122Z,1003.20
2018-12-16T07:53:28.083Z,1003.18
2018-12-16T07:54:28.056Z,1003.17
2018-12-16T07:55:28.080Z,1003.17
2018-12-16T07:56:28.042Z,1003.17
2018-12-16T07:57:28.039Z,1003.16
2018-12-16T07:58:28.068Z,1003.16
2018-12-16T07:59:28.020Z,1003.13
2018-12-16T08:00:28.018Z,1003.15
2018-12-16T08:01:27.987Z,1003.19
2018-12-16T08:02:28.005Z,1003.16
2018-12-16T08:03:28.006Z,1003.19
2018-12-16T08:04:28.001Z,1003.22
2018-12-16T08:05:27.935Z,1003.19
2018-12-16T08:06:27.925Z,1003.18
2018-12-16T08:07:27.932Z,1003.21
2018-12-16T08:08:27.901Z,1003.21
2018-12-16T08:09:27.906Z,1003.23
2018-12-16T08:10:27.882Z,1003.23
2018-12-16T08:11:27.884Z,1003.23
2018-12-16T08:12:27.864Z,1003.22
2018-12-16T08:13:27.843Z,1003.23
2018-12-16T08:14:27.849Z,1003.26
2018-12-16T08:15:27.819Z,1003.24
2018-12-16T08:16:27.813Z,1003.28
2018-12-16T08:17:27.801Z,1003.28
2018-12-16T08:18:27.790Z,1003.29
2018-12-16T08:19:27.792Z,1003.25
2018-12-16T08:20:27.812Z,1003.24
2018-12-16T08:21:27.787Z,1003.28
2018-12-16T08:22:27.741Z,1003.28
2018-12-16T08:23:27.730Z,1003.28
2018-12-16T08:24:27.734Z,1003.30
2018-12-16T08:25:27.720Z,1003.31
2018-12-16T08:26:27.699Z,1003.26
2018-12-16T08:27:27.692Z,1003.23
2018-12-16T08:28:27.682Z,1003.17
2018-12-16T08:29:27.687Z,1003.15
2018-12-16T08:30:27.655Z,1003.23
2018-12-16T08:31:27.649Z,1003.21
2018-12-16T08:32:27.633Z,1003.23
2018-12-16T08:33:27.620Z,1003.21
2018-12-16T08:34:27.644Z,1003.18
2018-12-16T08:35:27.604Z,1003.19
2018-12-16T08:36:27.611Z,1003.13
2018-12-16T08:37:27.581Z,1003.17
2018-12-16T08:38:27.571Z,1003.17
2018-12-16T08:39:27.587Z,1003.19
2018-12-16T08:40:27.545Z,1003.17
2018-12-16T08:41:27.539Z,1003.24
2018-12-16T08:42:27.523Z,1003.25
2018-12-16T08:43:27.510Z,1003.25
2018-12-16T08:44:27.538Z,1003.25
2018-12-16T08:45:27.504Z,1003.26
2018-12-16T08:46:27.476Z,1003.26
2018-12-16T08:47:33.126Z,1003.27
2018-12-16T08:48:28.455Z,1003.30
2018-12-16T08:49:27.448Z,1003.31
2018-12-16T08:50:27.445Z,1003.28
2018-12-16T08:51:27.424Z,1003.29
2018-12-16T08:52:27.411Z,1003.28
2018-12-16T08:53:27.398Z,1003.30
2018-12-16T08:54:30.169Z,1003.30
2018-12-16T08:55:27.420Z,1003.33
2018-12-16T08:56:27.368Z,1003.32
2018-12-16T08:57:27.365Z,1003.34
2018-12-16T08:58:27.343Z,1003.34
2018-12-16T08:59:27.331Z,1003.35
2018-12-16T09:00:27.357Z,1003.36
2018-12-16T09:01:27.309Z,1003.40
2018-12-16T09:02:27.298Z,1003.36
2018-12-16T09:03:27.292Z,1003.34
2018-12-16T09:04:27.287Z,1003.28
2018-12-16T09:05:27.275Z,1003.30
2018-12-16T09:06:27.267Z,1003.30
2018-12-16T09:07:27.256Z,1003.32
2018-12-16T09:08:27.233Z,1003.31
2018-12-16T09:09:27.219Z,1003.30
2018-12-16T09:10:33.929Z,1003.29
2018-12-16T09:11:28.196Z,1003.30
2018-12-16T09:12:27.197Z,1003.31
2018-12-16T09:13:27.182Z,1003.28
2018-12-16T09:14:27.163Z,1003.29
2018-12-16T09:15:27.170Z,1003.30
2018-12-16T09:16:27.142Z,1003.36
2018-12-16T09:17:27.133Z,1003.37
2018-12-16T09:18:27.120Z,1003.38
2018-12-16T09:19:27.125Z,1003.38
2018-12-16T09:20:27.107Z,1003.42
2018-12-16T09:21:27.085Z,1003.39
2018-12-16T09:22:27.076Z,1003.38
2018-12-16T09:23:27.063Z,1003.38
2018-12-16T09:24:27.054Z,1003.41
2018-12-16T09:25:27.056Z,1003.41
2018-12-16T09:26:27.044Z,1003.37
2018-12-16T09:27:27.025Z,1003.40
2018-12-16T09:28:27.018Z,1003.41
2018-12-16T09:29:26.998Z,1003.43
2018-12-16T09:30:27.024Z,1003.42
2018-12-16T09:31:26.973Z,1003.40
2018-12-16T09:32:26.962Z,1003.40
2018-12-16T09:33:26.959Z,1003.42
2018-12-16T09:34:26.941Z,1003.38
2018-12-16T09:35:26.960Z,1003.34
2018-12-16T09:36:26.918Z,1003.36
2018-12-16T09:37:26.908Z,1003.34
2018-12-16T09:38:26.936Z,1003.35
2018-12-16T09:39:26.885Z,1003.39
2018-12-16T09:40:26.887Z,1003.37
2018-12-16T09:41:26.873Z,1003.40
2018-12-16T09:42:26.851Z,1003.32
2018-12-16T09:43:26.851Z,1003.32
2018-12-16T09:44:26.866Z,1003.32
2018-12-16T09:45:26.837Z,1003.32
2018-12-16T09:46:26.824Z,1003.34
2018-12-16T09:47:26.795Z,1003.28
2018-12-16T09:48:26.789Z,1003.28
2018-12-16T09:49:26.772Z,1003.33
2018-12-16T09:50:26.762Z,1003.34
2018-12-16T09:51:26.769Z,1003.28
2018-12-16T09:52:26.744Z,1003.35
2018-12-16T09:53:26.748Z,1003.24
2018-12-16T09:54:26.727Z,1003.26
2018-12-16T09:55:26.707Z,1003.31
2018-12-16T09:56:26.722Z,1003.31
2018-12-16T09:57:26.686Z,1003.29
2018-12-16T09:58:26.687Z,1003.40
2018-12-16T09:59:26.721Z,1003.34
2018-12-16T10:00:26.648Z,1003.26
2018-12-16T10:01:26.656Z,1003.29
2018-12-16T10:02:26.642Z,1003.27
2018-12-16T10:03:26.618Z,1003.31
2018-12-16T10:04:26.611Z,1003.30
2018-12-16T10:05:26.601Z,1003.27
2018-12-16T10:06:26.606Z,1003.24
2018-12-16T10:07:26.573Z,1003.24
2018-12-16T10:08:26.565Z,1003.23
2018-12-16T10:09:26.556Z,1003.23
2018-12-16T10:10:26.541Z,1003.13
2018-12-16T10:11:26.540Z,1003.16
2018-12-16T10:12:26.523Z,1003.12
2018-12-16T10:13:26.506Z,1003.16
2018-12-16T10:14:26.508Z,1003.18
2018-12-16T10:15:26.480Z,1003.14
2018-12-16T10:16:26.515Z,1003.12
2018-12-16T10:17:26.464Z,1003.09
2018-12-16T10:18:26.466Z,1003.11
2018-12-16T10:19:26.450Z,1003.14
2018-12-16T10:20:26.426Z,1003.16
2018-12-16T10:21:26.416Z,1003.08
2018-12-16T10:22:26.418Z,1003.07
2018-12-16T10:23:26.403Z,1003.07
2018-12-16T10:24:26.381Z,1003.03
2018-12-16T10:25:26.379Z,1003.05
2018-12-16T10:26:26.392Z,1003.05
2018-12-16T10:27:26.367Z,1003.02
2018-12-16T10:28:26.344Z,1003.02
2018-12-16T10:29:26.336Z,1003.03
2018-12-16T10:30:26.314Z,1002.99
2018-12-16T10:31:26.312Z,1003.01
2018-12-16T10:32:26.324Z,1003.01
2018-12-16T10:33:26.279Z,1003.02
2018-12-16T10:34:26.270Z,1003.00
2018-12-16T10:35:26.265Z,1003.01
2018-12-16T10:36:26.246Z,1002.97
2018-12-16T10:37:26.248Z,1002.93
2018-12-16T10:38:26.225Z,1002.91
2018-12-16T10:39:26.228Z,1002.92
2018-12-16T10:40:26.210Z,1002.88
2018-12-16T10:41:26.192Z,1002.88
2018-12-16T10:42:26.202Z,1002.86
2018-12-16T10:43:26.185Z,1002.86
2018-12-16T10:44:26.159Z,1002.85
2018-12-16T10:45:26.162Z,1002.85
2018-12-16T10:46:26.134Z,1002.82
2018-12-16T10:47:26.135Z,1002.84
2018-12-16T10:48:26.133Z,1002.80
2018-12-16T10:49:26.117Z,1002.81
2018-12-16T10:50:26.090Z,1002.80
2018-12-16T10:51:26.102Z,1002.80
2018-12-16T10:52:26.102Z,1002.76
2018-12-16T10:53:26.054Z,1002.83
2018-12-16T10:54:26.053Z,1002.82
2018-12-16T10:55:26.037Z,1002.81
2018-12-16T10:56:26.027Z,1002.80
2018-12-16T10:57:26.038Z,1002.79
2018-12-16T10:58:26.008Z,1002.80
2018-12-16T10:59:25.993Z,1002.84
2018-12-16T11:00:26.000Z,1002.80
2018-12-16T11:01:25.968Z,1002.83
2018-12-16T11:02:26.015Z,1002.84
2018-12-16T11:03:25.944Z,1002.83
2018-12-16T11:04:25.937Z,1002.83
2018-12-16T11:05:25.932Z,1002.82
2018-12-16T11:06:25.915Z,1002.84
2018-12-16T11:07:25.913Z,1002.82
2018-12-16T11:08:25.891Z,1002.79
2018-12-16T11:09:25.884Z,1002.79
2018-12-16T11:10:25.866Z,1002.82
2018-12-16T11:11:25.869Z,1002.82
2018-12-16T11:12:25.902Z,1002.85
2018-12-16T11:13:25.833Z,1002.81
2018-12-16T11:14:25.851Z,1002.81
2018-12-16T11:15:25.814Z,1002.84
2018-12-16T11:16:25.801Z,1002.79
2018-12-16T11:17:25.789Z,1002.78
2018-12-16T11:18:25.787Z,1002.81
2018-12-16T11:19:25.774Z,1002.80
2018-12-16T11:20:25.763Z,1002.80
2018-12-16T11:21:25.758Z,1002.78
2018-12-16T11:22:25.748Z,1002.79
2018-12-16T11:23:25.737Z,1002.81
2018-12-16T11:24:25.730Z,1002.84
2018-12-16T11:25:25.722Z,1002.83
2018-12-16T11:26:25.696Z,1002.81
2018-12-16T11:27:25.695Z,1002.81
2018-12-16T11:28:25.687Z,1002.80
2018-12-16T11:29:25.655Z,1002.78
2018-12-16T11:30:25.643Z,1002.76
2018-12-16T11:31:25.631Z,1002.74
2018-12-16T11:32:25.638Z,1002.77
2018-12-16T11:33:25.626Z,1002.75
2018-12-16T11:34:25.611Z,1002.80
2018-12-16T11:35:25.597Z,1002.78
2018-12-16T11:36:25.577Z,1002.75
2018-12-16T11:37:25.566Z,1002.78
2018-12-16T11:38:25.581Z,1002.78
2018-12-16T11:39:25.551Z,1002.78
2018-12-16T11:40:25.530Z,1002.77
2018-12-16T11:41:25.520Z,1002.75
2018-12-16T11:42:25.508Z,1002.76
2018-12-16T11:43:25.560Z,1002.76
2018-12-16T11:44:25.488Z,1002.71
2018-12-16T11:45:25.494Z,1002.73
2018-12-16T11:46:25.465Z,1002.67
2018-12-16T11:47:25.457Z,1002.73
2018-12-16T11:48:26.340Z,1002.71
2018-12-16T11:49:25.455Z,1002.69
2018-12-16T11:50:25.428Z,1002.72
2018-12-16T11:51:25.433Z,1002.68
2018-12-16T11:52:25.403Z,1002.65
2018-12-16T11:53:25.387Z,1002.65
2018-12-16T11:54:25.393Z,1002.65
2018-12-16T11:55:25.371Z,1002.66
2018-12-16T11:56:25.367Z,1002.65
2018-12-16T11:57:25.341Z,1002.68
2018-12-16T11:58:25.337Z,1002.67
2018-12-16T11:59:25.396Z,1002.66
2018-12-16T12:00:25.308Z,1002.64
2018-12-16T12:01:25.299Z,1002.66
2018-12-16T12:02:25.291Z,1002.67
2018-12-16T12:03:25.277Z,1002.66
2018-12-16T12:04:25.305Z,1002.63
2018-12-16T12:05:25.255Z,1002.61